createdAt,value
2019-06-26T00:01:03.201Z,95.92
2019-06-26T00:01:29.980Z,95.48
2019-06-26T00:02:29.998Z,95.29
2019-06-26T00:03:29.939Z,95.29
2019-06-26T00:05:03.159Z,95.48
2019-06-26T00:05:29.941Z,95.78
2019-06-26T00:06:29.930Z,95.68
2019-06-26T00:07:29.919Z,95.53
2019-06-26T00:08:29.912Z,95.58
2019-06-26T00:09:29.955Z,95.97
2019-06-26T00:10:29.867Z,95.78
2019-06-26T00:11:29.866Z,95.97
2019-06-26T00:12:29.850Z,96.06
2019-06-26T00:13:29.839Z,96.06
2019-06-26T00:14:29.845Z,95.97
2019-06-26T00:15:29.820Z,96.26
2019-06-26T00:16:29.810Z,96.16
2019-06-26T00:17:29.807Z,96.16
2019-06-26T00:18:29.786Z,96.16
2019-06-26T00:19:29.782Z,96.26
2019-06-26T00:20:29.767Z,96.45
2019-06-26T00:21:29.755Z,96.55
2019-06-26T00:22:29.745Z,96.06
2019-06-26T00:23:29.733Z,96.31
2019-06-26T00:24:29.723Z,96.55
2019-06-26T00:25:29.726Z,96.21
2019-06-26T00:26:29.724Z,96.41
2019-06-26T00:27:29.746Z,96.31
2019-06-26T00:28:29.693Z,96.36
2019-06-26T00:29:29.671Z,96.31
2019-06-26T00:30:29.669Z,96.70
2019-06-26T00:31:29.657Z,96.98
2019-06-26T00:32:29.643Z,96.70
2019-06-26T00:33:29.635Z,97.38
2019-06-26T00:34:29.620Z,97.47
2019-06-26T00:35:29.639Z,96.98
2019-06-26T00:36:29.599Z,97.38
2019-06-26T00:37:29.589Z,97.76
2019-06-26T00:38:29.583Z,97.57
2019-06-26T00:39:29.573Z,97.76
2019-06-26T00:40:29.560Z,97.86
2019-06-26T00:41:29.548Z,97.96
2019-06-26T00:42:29.542Z,98.05
2019-06-26T00:43:42.055Z,97.81
2019-06-26T00:44:29.522Z,98.25
2019-06-26T00:45:29.521Z,98.39
2019-06-26T00:46:29.506Z,98.00
2019-06-26T00:47:29.488Z,98.44
2019-06-26T00:48:29.473Z,98.78
2019-06-26T00:49:29.462Z,98.58
2019-06-26T00:50:29.454Z,99.26
2019-06-26T00:51:29.445Z,99.07
2019-06-26T00:52:29.430Z,99.65
2019-06-26T00:53:29.423Z,99.17
2019-06-26T00:54:29.416Z,99.65
2019-06-26T00:55:29.398Z,99.55
2019-06-26T00:56:29.390Z,99.65
2019-06-26T00:57:29.398Z,99.99
2019-06-26T00:58:29.367Z,99.99
2019-06-26T00:59:29.356Z,99.99
2019-06-26T01:00:29.346Z,99.99
2019-06-26T01:01:29.336Z,99.99
2019-06-26T01:02:29.334Z,99.99
2019-06-26T01:03:29.313Z,99.99
2019-06-26T01:04:29.303Z,99.99
2019-06-26T01:05:29.294Z,99.99
2019-06-26T01:06:29.286Z,99.99
2019-06-26T01:07:29.271Z,99.99
2019-06-26T01:08:29.260Z,99.99
2019-06-26T01:09:29.252Z,99.99
2019-06-26T01:10:29.238Z,99.99
2019-06-26T01:11:29.232Z,99.99
2019-06-26T01:12:29.217Z,99.99
2019-06-26T01:13:29.209Z,99.99
2019-06-26T01:14:29.196Z,99.99
2019-06-26T01:15:29.234Z,99.99
2019-06-26T01:16:29.176Z,99.99
2019-06-26T01:17:29.168Z,99.99
2019-06-26T01:18:29.245Z,99.99
2019-06-26T01:19:29.140Z,99.99
2019-06-26T01:20:29.133Z,99.99
2019-06-26T01:21:29.118Z,99.99
2019-06-26T01:22:29.108Z,99.99
2019-06-26T01:23:29.098Z,99.99
2019-06-26T01:24:29.087Z,99.99
2019-06-26T01:25:29.076Z,99.99
2019-06-26T01:26:29.063Z,99.99
2019-06-26T01:27:29.051Z,99.99
2019-06-26T01:28:29.040Z,99.99
2019-06-26T01:29:32.469Z,99.99
2019-06-26T01:30:29.026Z,99.99
2019-06-26T01:31:29.010Z,99.99
2019-06-26T01:32:28.998Z,99.99
2019-06-26T01:33:28.991Z,99.99
2019-06-26T01:34:28.975Z,99.99
2019-06-26T01:35:28.967Z,99.99
2019-06-26T01:36:28.969Z,99.99
2019-06-26T01:37:28.943Z,99.99
2019-06-26T01:38:28.955Z,99.99
2019-06-26T01:39:28.917Z,99.99
2019-06-26T01:40:28.910Z,99.99
2019-06-26T01:41:28.900Z,99.99
2019-06-26T01:42:28.883Z,99.99
2019-06-26T01:43:28.873Z,99.99
2019-06-26T01:44:28.861Z,99.99
2019-06-26T01:45:28.851Z,99.99
2019-06-26T01:46:28.839Z,99.99
2019-06-26T01:47:28.829Z,99.99
2019-06-26T01:48:28.815Z,99.99
2019-06-26T01:49:28.804Z,99.99
2019-06-26T01:50:28.795Z,99.99
2019-06-26T01:51:28.780Z,99.99
2019-06-26T01:52:28.770Z,99.99
2019-06-26T01:53:28.759Z,99.99
2019-06-26T01:54:28.757Z,99.99
2019-06-26T01:55:28.736Z,99.99
2019-06-26T01:56:28.727Z,99.99
2019-06-26T01:57:28.714Z,99.99
2019-06-26T01:58:28.702Z,99.99
2019-06-26T01:59:28.690Z,99.99
2019-06-26T02:00:28.711Z,99.99
2019-06-26T02:01:28.669Z,99.99
2019-06-26T02:02:28.657Z,99.99
2019-06-26T02:03:28.646Z,99.99
2019-06-26T02:04:28.633Z,99.99
2019-06-26T02:05:28.625Z,99.99
2019-06-26T02:06:28.616Z,99.99
2019-06-26T02:07:28.604Z,99.99
2019-06-26T02:08:28.597Z,99.99
2019-06-26T02:09:28.589Z,99.99
2019-06-26T02:10:28.564Z,99.99
2019-06-26T02:11:28.555Z,99.99
2019-06-26T02:12:28.543Z,99.99
2019-06-26T02:13:28.529Z,99.99
2019-06-26T02:14:31.429Z,99.99
2019-06-26T02:15:28.506Z,99.99
2019-06-26T02:16:28.494Z,99.99
2019-06-26T02:17:28.485Z,99.99
2019-06-26T02:18:28.477Z,99.99
2019-06-26T02:19:28.460Z,99.99
2019-06-26T02:20:28.448Z,99.99
2019-06-26T02:21:28.440Z,99.99
2019-06-26T02:22:28.427Z,99.99
2019-06-26T02:23:28.415Z,99.99
2019-06-26T02:24:28.410Z,99.99
2019-06-26T02:25:28.393Z,99.99
2019-06-26T02:26:28.381Z,99.99
2019-06-26T02:27:28.369Z,99.99
2019-06-26T02:28:28.356Z,99.99
2019-06-26T02:29:28.344Z,99.99
2019-06-26T02:30:28.336Z,99.99
2019-06-26T02:31:28.322Z,99.99
2019-06-26T02:32:28.309Z,99.99
2019-06-26T02:33:28.298Z,99.99
2019-06-26T02:34:28.286Z,99.99
2019-06-26T02:35:28.280Z,99.99
2019-06-26T02:36:28.263Z,99.99
2019-06-26T02:37:28.257Z,99.99
2019-06-26T02:38:28.243Z,99.99
2019-06-26T02:39:28.233Z,99.99
2019-06-26T02:40:28.217Z,99.99
2019-06-26T02:41:28.211Z,99.99
2019-06-26T02:42:28.195Z,99.99
2019-06-26T02:43:28.186Z,99.99
2019-06-26T02:44:28.179Z,99.99
2019-06-26T02:45:28.164Z,99.99
2019-06-26T02:46:28.146Z,99.99
2019-06-26T02:47:28.135Z,99.99
2019-06-26T02:48:28.123Z,99.99
2019-06-26T02:49:28.112Z,99.99
2019-06-26T02:50:28.101Z,99.99
2019-06-26T02:51:28.092Z,99.99
2019-06-26T02:52:28.082Z,99.99
2019-06-26T02:53:28.065Z,99.99
2019-06-26T02:54:28.054Z,99.99
2019-06-26T02:55:28.041Z,99.99
2019-06-26T02:56:28.030Z,99.99
2019-06-26T02:57:28.062Z,99.99
2019-06-26T02:58:28.008Z,99.99
2019-06-26T02:59:27.996Z,99.99
2019-06-26T03:00:27.988Z,99.99
2019-06-26T03:01:27.975Z,99.99
2019-06-26T03:02:27.960Z,99.99
2019-06-26T03:03:27.949Z,99.99
2019-06-26T03:04:27.937Z,99.99
2019-06-26T03:05:27.926Z,99.99
2019-06-26T03:06:27.926Z,99.99
2019-06-26T03:07:27.904Z,99.99
2019-06-26T03:08:27.899Z,99.99
2019-06-26T03:09:27.877Z,99.99
2019-06-26T03:10:27.866Z,99.99
2019-06-26T03:11:27.854Z,99.99
2019-06-26T03:12:27.841Z,99.99
2019-06-26T03:13:27.830Z,99.99
2019-06-26T03:14:27.818Z,99.99
2019-06-26T03:15:27.807Z,99.99
2019-06-26T03:16:27.795Z,99.99
2019-06-26T03:17:27.786Z,99.99
2019-06-26T03:18:27.773Z,99.99
2019-06-26T03:19:27.762Z,99.99
2019-06-26T03:20:27.747Z,99.99
2019-06-26T03:21:27.739Z,99.99
2019-06-26T03:22:27.725Z,99.99
2019-06-26T03:23:27.712Z,99.99
2019-06-26T03:24:27.698Z,99.99
2019-06-26T03:25:27.695Z,99.99
2019-06-26T03:26:27.675Z,99.99
2019-06-26T03:27:27.663Z,99.99
2019-06-26T03:28:27.650Z,99.99
2019-06-26T03:29:27.641Z,99.99
2019-06-26T03:30:27.630Z,99.99
2019-06-26T03:31:27.619Z,99.99
2019-06-26T03:32:27.634Z,99.99
2019-06-26T03:33:27.593Z,99.99
2019-06-26T03:34:27.582Z,99.99
2019-06-26T03:35:27.566Z,99.99
2019-06-26T03:36:27.559Z,99.99
2019-06-26T03:37:27.546Z,99.99
2019-06-26T03:38:27.533Z,99.99
2019-06-26T03:39:27.520Z,99.99
2019-06-26T03:40:27.509Z,99.99
2019-06-26T03:41:27.500Z,99.99
2019-06-26T03:42:27.489Z,99.99
2019-06-26T03:43:27.471Z,99.99
2019-06-26T03:44:27.466Z,99.99
2019-06-26T03:45:27.450Z,99.99
2019-06-26T03:46:27.438Z,99.99
2019-06-26T03:47:27.425Z,99.99
2019-06-26T03:48:27.415Z,99.99
2019-06-26T03:49:27.401Z,99.99
2019-06-26T03:50:27.390Z,99.99
2019-06-26T03:51:27.389Z,99.99
2019-06-26T03:52:27.368Z,99.99
2019-06-26T03:53:27.353Z,99.99
2019-06-26T03:54:27.346Z,99.99
2019-06-26T03:55:27.328Z,99.99
2019-06-26T03:56:27.319Z,99.99
2019-06-26T03:57:27.305Z,99.99
2019-06-26T03:58:27.293Z,99.99
2019-06-26T03:59:27.281Z,99.99
2019-06-26T04:00:27.329Z,99.99
2019-06-26T04:01:27.260Z,99.99
2019-06-26T04:02:27.250Z,99.99
2019-06-26T04:03:27.235Z,99.99
2019-06-26T04:04:27.222Z,99.99
2019-06-26T04:05:27.213Z,99.99
2019-06-26T04:06:27.201Z,99.99
2019-06-26T04:07:27.187Z,99.99
2019-06-26T04:08:27.182Z,99.99
2019-06-26T04:09:27.166Z,99.99
2019-06-26T04:10:27.152Z,99.99
2019-06-26T04:11:27.140Z,99.99
2019-06-26T04:12:27.129Z,99.99
2019-06-26T04:13:27.116Z,99.99
2019-06-26T04:14:27.108Z,99.99
2019-06-26T04:15:40.807Z,99.99
2019-06-26T04:16:27.081Z,99.99
2019-06-26T04:17:27.074Z,99.99
2019-06-26T04:18:27.062Z,99.99
2019-06-26T04:19:27.048Z,99.99
2019-06-26T04:20:27.037Z,99.99
2019-06-26T04:21:27.024Z,99.99
2019-06-26T04:22:27.014Z,99.99
2019-06-26T04:23:27.006Z,99.99
2019-06-26T04:24:26.990Z,99.99
2019-06-26T04:25:26.977Z,99.99
2019-06-26T04:26:26.976Z,99.99
2019-06-26T04:27:26.955Z,99.99
2019-06-26T04:28:26.944Z,99.99
2019-06-26T04:29:26.937Z,99.99
2019-06-26T04:30:26.927Z,99.99
2019-06-26T04:31:26.912Z,99.99
2019-06-26T04:32:26.898Z,99.99
2019-06-26T04:33:26.889Z,99.99
2019-06-26T04:34:26.877Z,99.99
2019-06-26T04:35:26.864Z,99.99
2019-06-26T04:36:26.852Z,99.99
2019-06-26T04:37:26.844Z,99.99
2019-06-26T04:38:26.842Z,99.99
2019-06-26T04:39:26.837Z,99.99
2019-06-26T04:40:26.811Z,99.99
2019-06-26T04:41:26.798Z,99.99
2019-06-26T04:42:26.805Z,99.99
2019-06-26T04:43:26.813Z,99.99
2019-06-26T04:44:26.764Z,99.99
2019-06-26T04:45:26.753Z,99.99
2019-06-26T04:46:26.743Z,99.99
2019-06-26T04:47:26.734Z,99.99
2019-06-26T04:48:26.719Z,99.99
2019-06-26T04:49:26.709Z,99.99
2019-06-26T04:50:26.700Z,99.99
2019-06-26T04:51:26.687Z,99.99
2019-06-26T04:52:26.677Z,99.99
2019-06-26T04:53:26.866Z,99.99
2019-06-26T04:54:26.664Z,99.99
2019-06-26T04:55:26.670Z,99.99
2019-06-26T04:56:26.673Z,99.99
2019-06-26T04:57:26.682Z,99.99
2019-06-26T04:58:26.616Z,99.99
2019-06-26T04:59:26.605Z,99.99
2019-06-26T05:00:26.591Z,99.99
2019-06-26T05:01:26.583Z,99.99
2019-06-26T05:02:26.573Z,99.99
2019-06-26T05:03:26.564Z,99.41
2019-06-26T05:04:26.568Z,98.39
2019-06-26T05:05:39.161Z,98.20
2019-06-26T05:06:26.574Z,98.49
2019-06-26T05:07:26.566Z,97.91
2019-06-26T05:08:26.569Z,97.67
2019-06-26T05:09:26.526Z,96.41
2019-06-26T05:10:26.510Z,96.31
2019-06-26T05:11:26.508Z,95.97
2019-06-26T05:12:26.489Z,95.29
2019-06-26T05:13:26.495Z,95.92
2019-06-26T05:14:26.475Z,93.70
2019-06-26T05:15:26.589Z,93.45
2019-06-26T05:16:26.462Z,93.06
2019-06-26T05:17:26.456Z,92.91
2019-06-26T05:18:26.493Z,92.04
2019-06-26T05:19:26.450Z,91.02
2019-06-26T05:20:26.454Z,90.24
2019-06-26T05:21:26.491Z,90.24
2019-06-26T05:22:26.429Z,89.76
2019-06-26T05:23:26.419Z,89.56
2019-06-26T05:24:26.427Z,89.95
2019-06-26T05:25:26.464Z,89.37
2019-06-26T05:26:26.451Z,89.66
2019-06-26T05:27:26.426Z,90.34
2019-06-26T05:28:26.402Z,89.95
2019-06-26T05:29:26.418Z,88.54
2019-06-26T05:30:26.388Z,88.93
2019-06-26T05:31:26.400Z,89.22
2019-06-26T05:32:26.374Z,89.22
2019-06-26T05:33:26.376Z,88.39
2019-06-26T05:34:26.378Z,88.10
2019-06-26T05:35:26.366Z,87.46
2019-06-26T05:36:26.406Z,87.75
2019-06-26T05:37:26.378Z,86.14
2019-06-26T05:38:26.490Z,85.90
2019-06-26T05:39:26.384Z,85.90
2019-06-26T05:40:26.471Z,86.83
2019-06-26T05:41:26.365Z,87.03
2019-06-26T05:42:26.621Z,87.03
2019-06-26T05:43:26.339Z,86.79
2019-06-26T05:44:26.335Z,87.18
2019-06-26T05:45:26.396Z,87.18
2019-06-26T05:46:31.047Z,86.83
2019-06-26T05:47:26.322Z,86.05
2019-06-26T05:48:26.540Z,86.29
2019-06-26T05:49:26.386Z,86.00
2019-06-26T05:50:26.323Z,85.07
2019-06-26T05:51:26.360Z,84.72
2019-06-26T05:52:26.361Z,83.65
2019-06-26T05:53:26.306Z,83.65
2019-06-26T05:54:26.321Z,83.36
2019-06-26T05:55:26.376Z,83.75
2019-06-26T05:56:26.290Z,82.58
2019-06-26T05:57:26.297Z,82.58
2019-06-26T05:58:26.286Z,82.64
2019-06-26T05:59:26.279Z,83.32
2019-06-26T06:00:26.279Z,82.64
2019-06-26T06:01:26.280Z,83.09
2019-06-26T06:02:26.277Z,83.09
2019-06-26T06:03:26.273Z,83.32
2019-06-26T06:04:26.267Z,82.68
2019-06-26T06:05:26.265Z,82.35
2019-06-26T06:06:40.601Z,82.35
2019-06-26T06:07:26.260Z,82.10
2019-06-26T06:08:26.258Z,81.41
2019-06-26T06:09:26.261Z,81.38
2019-06-26T06:10:26.327Z,81.96
2019-06-26T06:11:26.306Z,82.06
2019-06-26T06:12:26.254Z,81.67
2019-06-26T06:13:26.250Z,81.22
2019-06-26T06:14:26.248Z,81.16
2019-06-26T06:15:26.259Z,80.38
2019-06-26T06:16:26.245Z,80.48
2019-06-26T06:17:26.247Z,80.44
2019-06-26T06:18:26.250Z,79.61
2019-06-26T06:19:26.240Z,79.80
2019-06-26T06:20:26.241Z,79.61
2019-06-26T06:21:26.245Z,79.12
2019-06-26T06:22:27.550Z,79.22
2019-06-26T06:23:26.264Z,78.53
2019-06-26T06:24:26.235Z,79.32
2019-06-26T06:25:26.310Z,78.28
2019-06-26T06:26:26.247Z,78.83
2019-06-26T06:27:26.271Z,79.32
2019-06-26T06:28:26.227Z,79.35
2019-06-26T06:29:26.529Z,78.22
2019-06-26T06:30:26.313Z,78.32
2019-06-26T06:31:26.342Z,77.34
2019-06-26T06:32:26.264Z,77.54
2019-06-26T06:33:26.262Z,77.25
2019-06-26T06:34:26.334Z,77.19
2019-06-26T06:35:26.243Z,76.80
2019-06-26T06:36:26.296Z,76.80
2019-06-26T06:37:26.229Z,76.90
2019-06-26T06:38:26.248Z,76.51
2019-06-26T06:39:26.303Z,75.82
2019-06-26T06:40:26.216Z,75.76
2019-06-26T06:41:26.218Z,75.27
2019-06-26T06:42:26.240Z,75.53
2019-06-26T06:43:26.221Z,75.37
2019-06-26T06:44:26.240Z,75.18
2019-06-26T06:45:26.225Z,75.18
2019-06-26T06:46:26.276Z,75.27
2019-06-26T06:47:26.218Z,74.30
2019-06-26T06:48:26.225Z,74.40
2019-06-26T06:49:26.249Z,74.76
2019-06-26T06:50:26.228Z,74.30
2019-06-26T06:51:26.213Z,73.43
2019-06-26T06:52:26.215Z,73.75
2019-06-26T06:53:26.210Z,72.91
2019-06-26T06:54:26.258Z,72.72
2019-06-26T06:55:26.209Z,72.42
2019-06-26T06:56:26.211Z,72.17
2019-06-26T06:57:26.226Z,71.19
2019-06-26T06:58:26.212Z,71.39
2019-06-26T06:59:26.314Z,70.73
2019-06-26T07:00:26.214Z,69.76
2019-06-26T07:01:26.223Z,70.41
2019-06-26T07:02:26.206Z,69.82
2019-06-26T07:03:26.206Z,69.76
2019-06-26T07:04:26.202Z,69.27
2019-06-26T07:05:26.214Z,69.76
2019-06-26T07:06:26.210Z,69.37
2019-06-26T07:07:26.263Z,69.27
2019-06-26T07:08:26.295Z,68.71
2019-06-26T07:09:26.210Z,68.82
2019-06-26T07:10:26.212Z,68.32
2019-06-26T07:11:26.230Z,68.62
2019-06-26T07:12:26.208Z,68.36
2019-06-26T07:13:26.215Z,67.97
2019-06-26T07:14:26.210Z,68.65
2019-06-26T07:15:26.207Z,67.68
2019-06-26T07:16:26.227Z,67.68
2019-06-26T07:17:26.210Z,68.46
2019-06-26T07:18:26.217Z,68.36
2019-06-26T07:19:26.207Z,68.10
2019-06-26T07:20:26.257Z,67.15
2019-06-26T07:21:26.216Z,67.05
2019-06-26T07:22:26.213Z,66.60
2019-06-26T07:23:26.260Z,66.05
2019-06-26T07:24:26.214Z,66.63
2019-06-26T07:25:26.212Z,67.02
2019-06-26T07:26:26.223Z,66.17
2019-06-26T07:27:26.221Z,66.93
2019-06-26T07:28:26.245Z,66.56
2019-06-26T07:29:26.221Z,66.89
2019-06-26T07:30:26.215Z,65.42
2019-06-26T07:31:26.216Z,64.64
2019-06-26T07:32:26.219Z,64.67
2019-06-26T07:33:26.237Z,64.54
2019-06-26T07:34:26.228Z,64.47
2019-06-26T07:35:26.224Z,64.37
2019-06-26T07:36:26.456Z,64.67
2019-06-26T07:37:26.227Z,64.37
2019-06-26T07:38:26.254Z,64.77
2019-06-26T07:39:26.226Z,64.31
2019-06-26T07:40:26.237Z,63.89
2019-06-26T07:41:26.227Z,64.77
2019-06-26T07:42:26.230Z,64.70
2019-06-26T07:43:26.231Z,64.14
2019-06-26T07:44:26.232Z,63.62
2019-06-26T07:45:26.244Z,64.58
2019-06-26T07:46:26.237Z,64.47
2019-06-26T07:47:41.786Z,64.58
2019-06-26T07:48:26.243Z,63.98
2019-06-26T07:49:26.279Z,63.62
2019-06-26T07:50:26.296Z,64.01
2019-06-26T07:51:26.257Z,63.92
2019-06-26T07:52:26.269Z,64.47
2019-06-26T07:53:26.246Z,64.41
2019-06-26T07:54:26.272Z,64.01
2019-06-26T07:55:26.251Z,63.33
2019-06-26T07:56:26.244Z,64.01
2019-06-26T07:57:26.332Z,64.18
2019-06-26T07:58:26.250Z,63.49
2019-06-26T07:59:26.269Z,64.01
2019-06-26T08:00:26.252Z,64.11
2019-06-26T08:01:26.245Z,62.28
2019-06-26T08:02:26.244Z,62.21
2019-06-26T08:03:26.245Z,61.82
2019-06-26T08:04:26.252Z,61.52
2019-06-26T08:05:26.254Z,61.76
2019-06-26T08:06:26.249Z,61.36
2019-06-26T08:07:26.255Z,61.04
2019-06-26T08:08:26.261Z,62.45
2019-06-26T08:09:26.277Z,62.57
2019-06-26T08:10:26.270Z,61.95
2019-06-26T08:11:26.267Z,61.43
2019-06-26T08:12:26.255Z,61.33
2019-06-26T08:13:26.301Z,60.21
2019-06-26T08:14:26.337Z,60.31
2019-06-26T08:15:26.273Z,61.29
2019-06-26T08:16:26.264Z,61.16
2019-06-26T08:17:26.271Z,61.16
2019-06-26T08:18:26.307Z,61.36
2019-06-26T08:19:26.273Z,61.10
2019-06-26T08:20:26.261Z,61.46
2019-06-26T08:21:26.261Z,61.78
2019-06-26T08:22:26.264Z,61.10
2019-06-26T08:23:26.294Z,61.07
2019-06-26T08:24:26.274Z,61.39
2019-06-26T08:25:26.276Z,60.31
2019-06-26T08:26:26.273Z,61.22
2019-06-26T08:27:26.265Z,60.14
2019-06-26T08:28:26.334Z,60.34
2019-06-26T08:29:26.269Z,60.31
2019-06-26T08:30:26.288Z,60.34
2019-06-26T08:31:26.269Z,59.52
2019-06-26T08:32:26.278Z,59.06
2019-06-26T08:33:26.352Z,59.36
2019-06-26T08:34:26.279Z,58.86
2019-06-26T08:35:26.493Z,58.50
2019-06-26T08:36:26.275Z,58.01
2019-06-26T08:37:26.273Z,58.14
2019-06-26T08:38:26.274Z,57.45
2019-06-26T08:39:26.335Z,57.54
2019-06-26T08:40:26.278Z,57.45
2019-06-26T08:41:26.278Z,57.45
2019-06-26T08:42:26.287Z,57.74
2019-06-26T08:43:26.291Z,57.84
2019-06-26T08:44:26.297Z,57.51
2019-06-26T08:45:26.292Z,58.40
2019-06-26T08:46:26.293Z,58.70
2019-06-26T08:47:26.314Z,59.06
2019-06-26T08:48:38.918Z,58.89
2019-06-26T08:49:26.726Z,58.89
2019-06-26T08:50:26.364Z,58.62
2019-06-26T08:51:26.305Z,58.72
2019-06-26T08:52:26.292Z,57.74
2019-06-26T08:53:26.298Z,58.30
2019-06-26T08:54:26.296Z,58.20
2019-06-26T08:55:26.338Z,58.96
2019-06-26T08:56:26.304Z,58.86
2019-06-26T08:57:26.293Z,58.28
2019-06-26T08:58:26.306Z,58.08
2019-06-26T08:59:26.323Z,58.11
2019-06-26T09:00:26.298Z,57.81
2019-06-26T09:01:26.366Z,58.20
2019-06-26T09:02:26.343Z,58.28
2019-06-26T09:03:26.293Z,57.62
2019-06-26T09:04:26.295Z,57.64
2019-06-26T09:05:26.293Z,57.81
2019-06-26T09:06:26.297Z,58.40
2019-06-26T09:07:26.305Z,58.89
2019-06-26T09:08:26.457Z,58.70
2019-06-26T09:09:26.322Z,58.86
2019-06-26T09:10:26.299Z,59.28
2019-06-26T09:11:26.295Z,59.58
2019-06-26T09:12:26.317Z,58.70
2019-06-26T09:13:26.311Z,58.99
2019-06-26T09:14:26.298Z,59.02
2019-06-26T09:15:26.301Z,58.62
2019-06-26T09:16:26.308Z,58.36
2019-06-26T09:17:26.310Z,57.97
2019-06-26T09:18:35.486Z,57.97
2019-06-26T09:19:26.341Z,58.72
2019-06-26T09:20:26.355Z,59.41
2019-06-26T09:21:26.403Z,59.22
2019-06-26T09:22:26.314Z,58.60
2019-06-26T09:23:26.301Z,58.43
2019-06-26T09:24:26.300Z,58.72
2019-06-26T09:25:26.344Z,58.85
2019-06-26T09:26:26.314Z,58.36
2019-06-26T09:27:26.391Z,58.16
2019-06-26T09:28:26.306Z,58.16
2019-06-26T09:29:26.304Z,58.36
2019-06-26T09:30:26.308Z,57.70
2019-06-26T09:31:26.321Z,58.36
2019-06-26T09:32:26.306Z,58.43
2019-06-26T09:33:26.323Z,58.70
2019-06-26T09:34:26.352Z,59.58
2019-06-26T09:35:26.338Z,59.58
2019-06-26T09:36:26.316Z,59.97
2019-06-26T09:37:26.308Z,59.28
2019-06-26T09:38:26.325Z,59.48
2019-06-26T09:39:26.345Z,59.45
2019-06-26T09:40:26.321Z,60.11
2019-06-26T09:41:26.318Z,60.02
2019-06-26T09:42:26.315Z,60.24
2019-06-26T09:43:26.314Z,59.88
2019-06-26T09:44:26.315Z,59.39
2019-06-26T09:45:26.312Z,59.58
2019-06-26T09:46:26.313Z,59.39
2019-06-26T09:47:26.317Z,59.15
2019-06-26T09:48:26.314Z,59.05
2019-06-26T09:49:26.315Z,58.56
2019-06-26T09:50:26.313Z,58.85
2019-06-26T09:51:26.314Z,58.92
2019-06-26T09:52:26.314Z,59.12
2019-06-26T09:53:26.314Z,59.28
2019-06-26T09:54:26.313Z,59.48
2019-06-26T09:55:26.319Z,59.84
2019-06-26T09:56:26.325Z,60.44
2019-06-26T09:57:26.313Z,59.68
2019-06-26T09:58:26.318Z,59.09
2019-06-26T09:59:26.315Z,59.19
2019-06-26T10:00:26.370Z,59.09
2019-06-26T10:01:26.315Z,59.36
2019-06-26T10:02:26.321Z,59.82
2019-06-26T10:03:26.359Z,61.19
2019-06-26T10:04:26.324Z,61.19
2019-06-26T10:05:26.320Z,61.26
2019-06-26T10:06:26.319Z,62.24
2019-06-26T10:07:26.345Z,61.85
2019-06-26T10:08:26.318Z,61.39
2019-06-26T10:09:26.329Z,60.44
2019-06-26T10:10:26.317Z,60.63
2019-06-26T10:11:26.318Z,60.57
2019-06-26T10:12:26.317Z,59.97
2019-06-26T10:13:26.317Z,60.24
2019-06-26T10:14:41.039Z,60.07
2019-06-26T10:15:26.320Z,60.53
2019-06-26T10:16:26.320Z,60.53
2019-06-26T10:17:26.319Z,61.19
2019-06-26T10:18:26.322Z,61.00
2019-06-26T10:19:26.336Z,61.07
2019-06-26T10:20:26.320Z,61.07
2019-06-26T10:21:26.318Z,62.54
2019-06-26T10:22:26.320Z,61.36
2019-06-26T10:23:26.315Z,61.04
2019-06-26T10:24:26.325Z,61.72
2019-06-26T10:25:26.316Z,61.99
2019-06-26T10:26:26.318Z,62.18
2019-06-26T10:27:26.343Z,62.18
2019-06-26T10:28:26.315Z,62.48
2019-06-26T10:29:26.314Z,62.57
2019-06-26T10:30:26.317Z,62.31
2019-06-26T10:31:26.316Z,61.26
2019-06-26T10:32:26.312Z,61.29
2019-06-26T10:33:26.315Z,61.19
2019-06-26T10:34:26.313Z,61.16
2019-06-26T10:35:26.325Z,62.28
2019-06-26T10:36:26.312Z,63.17
2019-06-26T10:37:26.310Z,62.81
2019-06-26T10:38:26.311Z,64.04
2019-06-26T10:39:26.316Z,63.46
2019-06-26T10:40:26.315Z,63.00
2019-06-26T10:41:26.309Z,62.05
2019-06-26T10:42:26.309Z,62.31
2019-06-26T10:43:26.318Z,62.31
2019-06-26T10:44:26.315Z,62.24
2019-06-26T10:45:26.320Z,62.34
2019-06-26T10:46:26.341Z,62.37
2019-06-26T10:47:26.311Z,61.65
2019-06-26T10:48:26.305Z,61.78
2019-06-26T10:49:27.677Z,61.39
2019-06-26T10:50:26.364Z,61.68
2019-06-26T10:51:26.304Z,61.29
2019-06-26T10:52:26.306Z,60.73
2019-06-26T10:53:26.306Z,60.37
2019-06-26T10:54:26.301Z,60.17
2019-06-26T10:55:26.303Z,60.17
2019-06-26T10:56:28.646Z,59.28
2019-06-26T10:57:26.300Z,59.64
2019-06-26T10:58:26.307Z,58.16
2019-06-26T10:59:26.301Z,59.02
2019-06-26T11:00:26.306Z,58.62
2019-06-26T11:01:26.303Z,59.02
2019-06-26T11:02:26.303Z,58.53
2019-06-26T11:03:26.299Z,58.62
2019-06-26T11:04:26.304Z,59.19
2019-06-26T11:05:26.310Z,59.39
2019-06-26T11:06:26.351Z,60.07
2019-06-26T11:07:26.362Z,60.07
2019-06-26T11:08:26.321Z,59.78
2019-06-26T11:09:26.299Z,59.28
2019-06-26T11:10:26.304Z,59.58
2019-06-26T11:11:26.301Z,58.89
2019-06-26T11:12:26.297Z,58.89
2019-06-26T11:13:26.297Z,58.53
2019-06-26T11:14:26.315Z,58.26
2019-06-26T11:15:26.386Z,57.97
2019-06-26T11:16:26.360Z,58.04
2019-06-26T11:17:26.309Z,58.36
2019-06-26T11:18:26.303Z,58.14
2019-06-26T11:19:39.487Z,58.56
2019-06-26T11:20:26.303Z,57.90
2019-06-26T11:21:26.340Z,57.11
2019-06-26T11:22:26.301Z,57.50
2019-06-26T11:23:26.304Z,57.37
2019-06-26T11:24:26.300Z,58.83
2019-06-26T11:25:26.298Z,58.26
2019-06-26T11:26:26.302Z,58.26
2019-06-26T11:27:26.294Z,58.00
2019-06-26T11:28:26.293Z,57.53
2019-06-26T11:29:26.299Z,57.31
2019-06-26T11:30:26.297Z,56.98
2019-06-26T11:31:26.860Z,57.18
2019-06-26T11:32:26.345Z,57.18
2019-06-26T11:33:26.297Z,57.37
2019-06-26T11:34:26.337Z,57.01
2019-06-26T11:35:26.296Z,56.45
2019-06-26T11:36:26.300Z,56.18
2019-06-26T11:37:26.294Z,56.18
2019-06-26T11:38:26.332Z,56.27
2019-06-26T11:39:26.298Z,56.15
2019-06-26T11:40:26.293Z,56.91
2019-06-26T11:41:26.295Z,57.35
2019-06-26T11:42:26.296Z,57.18
2019-06-26T11:43:26.314Z,56.98
2019-06-26T11:44:26.304Z,56.62
2019-06-26T11:45:26.294Z,56.25
2019-06-26T11:46:26.294Z,56.64
2019-06-26T11:47:26.295Z,56.05
2019-06-26T11:48:26.321Z,55.83
2019-06-26T11:49:26.294Z,55.93
2019-06-26T11:50:26.292Z,55.53
2019-06-26T11:51:26.296Z,55.73
2019-06-26T11:52:26.295Z,55.85
2019-06-26T11:53:26.300Z,56.81
2019-06-26T11:54:26.293Z,56.91
2019-06-26T11:55:26.294Z,55.95
2019-06-26T11:56:26.296Z,55.46
2019-06-26T11:57:26.294Z,55.46
2019-06-26T11:58:26.298Z,56.15
2019-06-26T11:59:26.298Z,56.54
2019-06-26T12:00:26.303Z,56.94
2019-06-26T12:01:26.294Z,55.76
2019-06-26T12:02:26.291Z,55.68
2019-06-26T12:03:26.292Z,55.95
2019-06-26T12:04:26.292Z,56.15
2019-06-26T12:05:26.299Z,55.85
2019-06-26T12:06:26.295Z,55.76
2019-06-26T12:07:26.290Z,56.05
2019-06-26T12:08:26.290Z,56.84
2019-06-26T12:09:26.290Z,56.96
2019-06-26T12:10:26.294Z,56.96
2019-06-26T12:11:26.295Z,56.30
2019-06-26T12:12:26.289Z,54.46
2019-06-26T12:13:26.287Z,54.58
2019-06-26T12:14:26.286Z,53.69
2019-06-26T12:15:26.286Z,53.13
2019-06-26T12:16:26.286Z,53.33
2019-06-26T12:17:26.284Z,53.22
2019-06-26T12:18:26.340Z,52.95
2019-06-26T12:19:26.284Z,53.05
2019-06-26T12:20:26.465Z,52.83
2019-06-26T12:21:26.295Z,53.13
2019-06-26T12:22:26.295Z,54.28
2019-06-26T12:23:26.312Z,53.81
2019-06-26T12:24:26.670Z,53.64
2019-06-26T12:25:26.295Z,53.05
2019-06-26T12:26:26.298Z,53.35
2019-06-26T12:27:26.289Z,53.35
2019-06-26T12:28:26.288Z,53.45
2019-06-26T12:29:26.288Z,53.25
2019-06-26T12:30:26.295Z,52.51
2019-06-26T12:31:26.316Z,51.62
2019-06-26T12:32:26.298Z,51.03
2019-06-26T12:33:26.294Z,50.76
2019-06-26T12:34:26.297Z,50.68
2019-06-26T12:35:26.361Z,50.83
2019-06-26T12:36:26.295Z,51.62
2019-06-26T12:37:37.058Z,52.22
2019-06-26T12:38:26.298Z,52.12
2019-06-26T12:39:26.315Z,52.54
2019-06-26T12:40:26.289Z,51.35
2019-06-26T12:41:26.294Z,50.85
2019-06-26T12:42:26.301Z,50.36
2019-06-26T12:43:26.290Z,50.09
2019-06-26T12:44:26.294Z,50.01
2019-06-26T12:45:26.289Z,49.79
2019-06-26T12:46:26.290Z,50.09
2019-06-26T12:47:26.291Z,50.48
2019-06-26T12:48:26.291Z,50.78
2019-06-26T12:49:26.345Z,51.10
2019-06-26T12:50:35.247Z,50.41
2019-06-26T12:51:26.292Z,51.47
2019-06-26T12:52:26.303Z,51.84